Saint-Joachim, Canada
Current Conditions -  °F | °C
As of 3:00 PM on Tuesday 27 Jan 2015 (Local Time) from CYQB Reporting Station
Overcast Overcast  
Wind Chill: -7°   Ceiling: 6800
Heat Index: 10°   Visibility: 30mi
Dew Point: -6°   Wind: 16mph
Humidity: 48%   Direction: 70°ENE
Pressure: 30.02"   Gusts: NA
Location:  47.05°N, 70.85°W
Report Text: CYQB 272000Z 07014KT 30SM FEW030 BKN068 OVC120 M12/M21 A3002 RMK SC2AC5AC1 SLP173
Loading
Personal Weather Stations






























Interactive Weather Map New forecast layout! Learn more

10-Day Weather Forecast

Advertisements
Track Severe Weather on mobile